Time;durP1;ratioP1;P1;durP2;ratioP2;P2;SDS_P1;SDS_P2;PMS_P1;PMS_P2;Temp;Humidity;BMP_temperature;BMP_pressure;BME280_temperature;BME280_humidity;BME280_pressure;Samples;Min_cycle;Max_cycle;Signal;HPM_P1;HPM_P2
2023/06/17 00:01:06;;;;;;;9.82;6.10;;;20.80;73.50;;;;;;5089534;28;20462;-31
2023/06/17 00:03:32;;;;;;;10.52;6.82;;;21.40;73.80;;;;;;5092520;28;20048;-31
2023/06/17 00:05:59;;;;;;;13.05;6.53;;;21.10;57.80;;;;;;5092644;28;20127;-32
2023/06/17 00:08:26;;;;;;;10.43;6.22;;;21.40;73.60;;;;;;5092487;28;20048;-30
2023/06/17 00:10:52;;;;;;;11.50;6.68;;;21.40;74.10;;;;;;5092309;28;20404;-30
2023/06/17 00:13:21;;;;;;;8.98;6.60;;;21.10;56.40;;;;;;5092103;28;20131;-34
2023/06/17 00:15:50;;;;;;;8.45;6.53;;;21.20;60.30;;;;;;5090958;28;20044;-33
2023/06/17 00:18:19;;;;;;;10.80;6.40;;;;;;;;;;5074848;28;20045;-30
2023/06/17 00:20:46;;;;;;;8.48;6.75;;;21.50;65.10;;;;;;5072033;28;20505;-31
2023/06/17 00:23:14;;;;;;;14.18;7.40;;;;;;;;;;5078486;28;20139;-34
2023/06/17 00:25:40;;;;;;;10.20;6.70;;;21.20;74.20;;;;;;5092062;28;20127;-32
2023/06/17 00:28:07;;;;;;;9.32;6.32;;;21.50;74.40;;;;;;5091935;28;20127;-38
2023/06/17 00:30:35;;;;;;;9.10;6.95;;;21.10;56.70;;;;;;5092257;28;20126;-37
2023/06/17 00:33:02;;;;;;;12.45;7.22;;;;;;;;;;5087160;28;20462;-34
2023/06/17 00:35:30;;;;;;;12.05;7.07;;;;;;;;;;5081516;28;20044;-39
2023/06/17 00:37:56;;;;;;;8.80;6.03;;;21.90;72.90;;;;;;5091411;28;20048;-39
2023/06/17 00:40:23;;;;;;;10.43;6.47;;;;;;;;;;5092319;28;20407;-35
2023/06/17 00:42:50;;;;;;;9.38;6.18;;;;;;;;;;5091706;28;20059;-36
2023/06/17 00:45:17;;;;;;;10.63;6.63;;;21.50;74.40;;;;;;5092213;28;20048;-39
2023/06/17 00:47:45;;;;;;;11.63;6.80;;;21.10;56.90;;;;;;5091982;28;20050;-36
2023/06/17 00:50:15;;;;;;;9.73;6.97;;;;;;;;;;5081075;28;20119;-36
2023/06/17 00:52:42;;;;;;;10.63;6.93;;;20.80;73.50;;;;;;5085059;28;20084;-38
2023/06/17 00:55:09;;;;;;;12.70;7.32;;;21.10;57.00;;;;;;5085136;28;20058;-37
2023/06/17 00:57:37;;;;;;;11.57;6.70;;;20.80;74.40;;;;;;5087412;28;20047;-40
2023/06/17 01:00:09;;;;;;;9.15;6.60;;;21.70;74.90;;;;;;5092132;28;20413;-36
2023/06/17 01:02:39;;;;;;;10.10;7.05;;;21.30;74.10;;;;;;5091572;28;20505;-36
2023/06/17 01:05:11;;;;;;;9.50;6.93;;;21.10;57.10;;;;;;5090949;28;20059;-36
2023/06/17 01:07:42;;;;;;;7.60;6.80;;;21.10;57.20;;;;;;5091938;28;20131;-39
2023/06/17 01:10:12;;;;;;;11.52;7.47;;;22.20;62.90;;;;;;5092202;28;20071;-38
2023/06/17 01:12:39;;;;;;;10.77;7.28;;;;;;;;;;5091545;28;20048;-34
2023/06/17 01:15:08;;;;;;;10.00;7.82;;;20.80;57.10;;;;;;5091826;28;20059;-37
2023/06/17 01:17:35;;;;;;;10.02;7.53;;;20.70;68.40;;;;;;5091502;28;20640;-39
2023/06/17 01:20:03;;;;;;;11.30;7.32;;;;;;;;;;5091649;28;20105;-35
2023/06/17 01:22:31;;;;;;;12.23;8.70;;;20.60;74.10;;;;;;5074216;28;20049;-37
2023/06/17 01:25:01;;;;;;;11.95;7.97;;;20.70;74.10;;;;;;5071602;28;20127;-36
2023/06/17 01:27:28;;;;;;;11.73;8.60;;;;;;;;;;5071575;28;20076;-33
2023/06/17 01:29:55;;;;;;;10.32;8.27;;;20.70;73.80;;;;;;5071289;28;20541;-38
2023/06/17 01:32:22;;;;;;;12.88;8.02;;;;;;;;;;5071325;28;20087;-36
2023/06/17 01:34:52;;;;;;;10.40;8.15;;;20.50;74.60;;;;;;5071518;28;20131;-38
2023/06/17 01:37:21;;;;;;;13.18;8.50;;;20.40;73.70;;;;;;5085449;28;20143;-36
2023/06/17 01:39:48;;;;;;;10.13;8.25;;;;;;;;;;5094337;28;20055;-35
2023/06/17 01:42:22;;;;;;;11.15;7.90;;;21.10;74.40;;;;;;5095021;28;20465;-38
2023/06/17 01:44:49;;;;;;;10.68;8.38;;;;;;;;;;5095440;28;20127;-36
2023/06/17 01:47:16;;;;;;;10.30;8.07;;;;;;;;;;5094857;28;20131;-36
2023/06/17 01:49:44;;;;;;;11.02;8.00;;;;;;;;;;5095116;28;20036;-38
2023/06/17 01:52:11;;;;;;;11.63;8.00;;;;;;;;;;5095119;28;20153;-31
2023/06/17 01:54:38;;;;;;;13.07;8.30;;;;;;;;;;5090953;28;20048;-40
2023/06/17 01:57:06;;;;;;;11.32;8.15;;;21.00;57.70;;;;;;5090929;28;20058;-39
2023/06/17 01:59:34;;;;;;;10.98;7.90;;;21.10;74.70;;;;;;5094867;28;20408;-40
2023/06/17 02:02:01;;;;;;;13.65;8.10;;;;;;;;;;5084877;28;20113;-38
2023/06/17 02:04:28;;;;;;;11.43;8.00;;;21.20;72.30;;;;;;5074655;28;20132;-38
2023/06/17 02:06:56;;;;;;;13.43;8.50;;;;;;;;;;5075039;28;20132;-36
2023/06/17 02:09:23;;;;;;;11.55;8.57;;;20.70;74.30;;;;;;5074537;28;20040;-39
2023/06/17 02:11:50;;;;;;;13.07;8.30;;;20.80;75.10;;;;;;5075712;28;20071;-38
2023/06/17 02:14:17;;;;;;;12.60;8.40;;;;;;;;;;5074206;28;20141;-34
2023/06/17 02:16:46;;;;;;;10.68;8.50;;;21.10;65.80;;;;;;5074313;28;20091;-35
2023/06/17 02:19:14;;;;;;;11.10;8.27;;;;;;;;;;5074480;28;20139;-35
2023/06/17 02:21:41;;;;;;;9.93;8.20;;;;;;;;;;5074318;28;20056;-36
2023/06/17 02:24:08;;;;;;;11.82;8.18;;;21.00;75.40;;;;;;5074232;28;20048;-40
2023/06/17 02:26:35;;;;;;;12.65;8.27;;;20.90;75.40;;;;;;5074165;28;20054;-39
2023/06/17 02:29:02;;;;;;;10.77;7.97;;;;;;;;;;5075315;28;20051;-38
2023/06/17 02:31:28;;;;;;;11.05;7.90;;;21.00;75.20;;;;;;5074344;28;20052;-37
2023/06/17 02:33:56;;;;;;;10.32;8.00;;;20.90;58.10;;;;;;5074349;28;20488;-36
2023/06/17 02:36:24;;;;;;;10.63;7.60;;;;;;;;;;5093832;28;20128;-36
2023/06/17 02:38:52;;;;;;;11.20;8.35;;;20.80;66.20;;;;;;5094225;28;20050;-40
2023/06/17 02:41:19;;;;;;;11.15;8.40;;;21.10;74.90;;;;;;5094173;28;20043;-37
2023/06/17 02:43:46;;;;;;;13.88;8.32;;;21.60;62.70;;;;;;5093840;28;20111;-39
2023/06/17 02:46:13;;;;;;;11.50;8.20;;;21.20;75.10;;;;;;5091421;28;20409;-37
2023/06/17 02:48:40;;;;;;;11.25;8.27;;;;;;;;;;5093659;28;20127;-39
2023/06/17 02:51:09;;;;;;;11.35;8.52;;;20.70;75.00;;;;;;5094052;28;20105;-38
2023/06/17 02:53:36;;;;;;;15.45;8.55;;;20.90;75.10;;;;;;5093654;28;20133;-39
2023/06/17 02:56:03;;;;;;;12.93;8.45;;;;;;;;;;5093858;28;20583;-32
2023/06/17 02:58:30;;;;;;;11.82;8.68;;;21.10;75.30;;;;;;5093759;28;20607;-30
2023/06/17 03:00:57;;;;;;;12.48;8.13;;;20.50;65.00;;;;;;5093848;28;20131;-31
2023/06/17 03:03:33;;;;;;;9.98;8.57;;;;;;;;;;5080248;28;20056;-34
2023/06/17 03:06:03;;;;;;;10.60;8.55;;;;;;;;;;5073769;28;20417;-34
2023/06/17 03:08:32;;;;;;;11.35;8.40;;;20.30;75.20;;;;;;5073222;28;20086;-32
2023/06/17 03:10:59;;;;;;;12.48;8.60;;;20.10;60.40;;;;;;5073275;28;20052;-32
2023/06/17 03:13:25;;;;;;;10.95;8.00;;;21.20;76.20;;;;;;5073308;28;20400;-31
2023/06/17 03:15:53;;;;;;;9.55;7.70;;;21.00;75.70;;;;;;5073620;28;20084;-30
2023/06/17 03:18:20;;;;;;;9.98;8.18;;;21.00;76.00;;;;;;5073173;28;20055;-30
2023/06/17 03:20:47;;;;;;;10.82;7.82;;;;;;;;;;5073165;28;20052;-36
2023/06/17 03:23:15;;;;;;;13.30;8.65;;;21.70;75.90;;;;;;5072689;28;20127;-31
2023/06/17 03:25:44;;;;;;;10.32;8.27;;;20.80;75.40;;;;;;5073274;28;20110;-30
2023/06/17 03:28:10;;;;;;;13.30;8.68;;;20.40;75.30;;;;;;5072910;28;20080;-31
2023/06/17 03:30:39;;;;;;;11.57;8.20;;;20.70;58.70;;;;;;5072867;28;20564;-34
2023/06/17 03:33:05;;;;;;;11.40;8.48;;;21.00;62.00;;;;;;5073849;28;20071;-34
2023/06/17 03:35:33;;;;;;;11.63;9.02;;;20.70;76.20;;;;;;5073009;28;20054;-30
2023/06/17 03:38:00;;;;;;;10.20;8.65;;;19.60;67.70;;;;;;5090401;28;20122;-30
2023/06/17 03:40:27;;;;;;;10.50;8.57;;;;;;;;;;5093341;28;20131;-33
2023/06/17 03:42:55;;;;;;;12.70;8.40;;;20.70;58.80;;;;;;5092681;28;20044;-33
2023/06/17 03:45:22;;;;;;;12.38;8.13;;;;;;;;;;5093010;28;20043;-34
2023/06/17 03:47:49;;;;;;;14.95;8.63;;;20.40;75.30;;;;;;5092220;28;20564;-30
2023/06/17 03:50:16;;;;;;;10.27;8.25;;;;;;;;;;5092622;28;20040;-34
2023/06/17 03:52:42;;;;;;;13.20;8.70;;;20.80;76.40;;;;;;5092748;28;20127;-30
2023/06/17 03:55:10;;;;;;;11.90;8.52;;;20.40;59.30;;;;;;5093110;28;20462;-31
2023/06/17 03:57:37;;;;;;;12.63;8.77;;;20.80;76.00;;;;;;5092679;28;20050;-31
2023/06/17 04:00:07;;;;;;;11.07;8.27;;;20.80;66.00;;;;;;5091788;28;20504;-31
2023/06/17 04:02:33;;;;;;;11.07;8.48;;;20.90;76.10;;;;;;5080680;28;20049;-30
2023/06/17 04:05:02;;;;;;;11.45;8.32;;;;;;;;;;5072261;28;20127;-33
2023/06/17 04:07:28;;;;;;;9.93;7.70;;;21.30;68.00;;;;;;5072159;28;20501;-31
2023/06/17 04:09:55;;;;;;;10.85;8.38;;;19.80;67.80;;;;;;5072250;28;20128;-31
2023/06/17 04:12:22;;;;;;;11.63;8.60;;;;;;;;;;5071891;28;20413;-30
2023/06/17 04:14:49;;;;;;;11.65;7.82;;;21.00;76.20;;;;;;5072184;28;20109;-31
2023/06/17 04:17:19;;;;;;;10.30;7.93;;;21.00;75.90;;;;;;5087245;28;20493;-31
2023/06/17 04:19:46;;;;;;;10.77;7.88;;;20.30;75.90;;;;;;5092132;28;20044;-30
2023/06/17 04:22:13;;;;;;;14.32;8.55;;;;;;;;;;5092165;28;20044;-33
2023/06/17 04:24:40;;;;;;;11.07;7.82;;;20.40;75.70;;;;;;5092233;28;20117;-31
2023/06/17 04:27:07;;;;;;;9.60;7.82;;;20.40;75.80;;;;;;5092664;28;20127;-30
2023/06/17 04:29:34;;;;;;;13.55;8.38;;;20.20;75.70;;;;;;5092075;28;20129;-31
2023/06/17 04:32:02;;;;;;;10.18;7.75;;;20.60;59.10;;;;;;5073698;28;20455;-37
2023/06/17 04:34:30;;;;;;;11.20;8.30;;;20.60;59.10;;;;;;5071642;28;20056;-34
2023/06/17 04:36:57;;;;;;;10.88;8.05;;;;;;;;;;5080904;28;20048;-34
2023/06/17 04:39:25;;;;;;;12.07;7.68;;;20.60;66.70;;;;;;5081692;28;20472;-31
2023/06/17 04:41:52;;;;;;;17.63;8.27;;;20.20;71.30;;;;;;5071667;28;20135;-30
2023/06/17 04:44:18;;;;;;;12.05;8.50;;;20.30;74.40;;;;;;5072243;28;20589;-30
2023/06/17 04:46:45;;;;;;;10.00;8.10;;;;;;;;;;5091783;28;20135;-32
2023/06/17 04:49:13;;;;;;;9.68;7.68;;;19.80;75.50;;;;;;5092322;28;20147;-30
2023/06/17 04:51:41;;;;;;;12.70;8.52;;;20.70;76.00;;;;;;5091815;28;20044;-31
2023/06/17 04:54:08;;;;;;;13.88;8.60;;;20.60;76.60;;;;;;5091699;28;20111;-31
2023/06/17 04:56:36;;;;;;;10.77;8.75;;;20.60;75.90;;;;;;5092043;28;20047;-30
2023/06/17 04:59:03;;;;;;;10.73;8.13;;;20.20;75.70;;;;;;5086569;28;20036;-30
2023/06/17 05:01:30;;;;;;;12.23;8.07;;;20.20;75.60;;;;;;5079869;28;20127;-32
2023/06/17 05:03:56;;;;;;;11.63;8.00;;;20.60;72.20;;;;;;5079679;28;20554;-31
2023/06/17 05:06:23;;;;;;;11.20;7.70;;;20.50;75.90;;;;;;5092046;28;20058;-32
2023/06/17 05:08:51;;;;;;;9.43;7.90;;;20.60;59.20;;;;;;5091649;28;20048;-33
2023/06/17 05:11:18;;;;;;;11.02;7.70;;;;;;;;;;5095517;28;20047;-33
2023/06/17 05:13:45;;;;;;;12.32;7.57;;;20.90;76.70;;;;;;5089180;28;20055;-34
2023/06/17 05:16:12;;;;;;;12.02;8.18;;;;;;;;;;5075887;28;20056;-33
2023/06/17 05:18:39;;;;;;;13.70;8.35;;;20.50;76.90;;;;;;5075450;28;20494;-30
2023/06/17 05:21:06;;;;;;;11.82;8.02;;;;;;;;;;5075580;28;20090;-40
2023/06/17 05:23:33;;;;;;;10.63;7.97;;;20.40;74.80;;;;;;5093852;28;20047;-31
2023/06/17 05:26:01;;;;;;;12.88;8.23;;;20.50;76.30;;;;;;5094686;28;20067;-31
2023/06/17 05:28:28;;;;;;;10.88;7.65;;;20.40;77.20;;;;;;5095252;28;20083;-30
2023/06/17 05:30:55;;;;;;;10.07;7.78;;;;;;;;;;5095205;28;20048;-34
2023/06/17 05:33:24;;;;;;;10.43;8.35;;;20.20;76.10;;;;;;5095310;28;20511;-30
2023/06/17 05:35:51;;;;;;;12.95;7.97;;;20.50;77.20;;;;;;5094478;28;20110;-30
2023/06/17 05:38:18;;;;;;;10.50;8.23;;;20.40;76.30;;;;;;5095894;28;20147;-30
2023/06/17 05:40:45;;;;;;;11.40;8.35;;;19.80;76.30;;;;;;5095451;28;20044;-32
2023/06/17 05:43:13;;;;;;;11.02;8.48;;;21.10;63.80;;;;;;5094404;28;20127;-34
2023/06/17 05:45:39;;;;;;;13.73;8.00;;;21.40;62.20;;;;;;5095019;28;20139;-32
2023/06/17 05:48:06;;;;;;;13.88;8.63;;;21.00;77.50;;;;;;5095593;28;20127;-30
2023/06/17 05:50:33;;;;;;;12.48;8.05;;;21.00;76.80;;;;;;5095275;28;20044;-32
2023/06/17 05:53:00;;;;;;;13.23;8.55;;;;;;;;;;5095004;28;20522;-34
2023/06/17 05:55:27;;;;;;;13.38;8.20;;;;;;;;;;5094985;28;20477;-34
2023/06/17 05:57:54;;;;;;;9.27;7.10;;;;;;;;;;5094488;28;20416;-33
2023/06/17 06:00:23;;;;;;;13.50;8.50;;;19.90;77.20;;;;;;5093957;28;20048;-33
2023/06/17 06:02:49;;;;;;;10.77;8.38;;;20.90;77.10;;;;;;5094773;28;20052;-31
2023/06/17 06:05:16;;;;;;;12.18;8.27;;;20.30;70.30;;;;;;5094901;28;20123;-32
2023/06/17 06:07:43;;;;;;;10.95;8.45;;;20.50;60.00;;;;;;5086556;28;20050;-32
2023/06/17 06:10:10;;;;;;;10.07;8.40;;;;;;;;;;5079654;28;20409;-32
2023/06/17 06:12:37;;;;;;;13.05;8.63;;;21.50;77.20;;;;;;5073947;28;20393;-30
2023/06/17 06:15:04;;;;;;;12.68;8.38;;;;;;;;;;5087947;28;20155;-34
2023/06/17 06:17:33;;;;;;;11.88;7.93;;;21.10;72.90;;;;;;5082488;28;20120;-31
2023/06/17 06:19:59;;;;;;;9.90;7.90;;;20.20;76.90;;;;;;5085132;28;20433;-31
2023/06/17 06:22:27;;;;;;;12.00;8.43;;;;;;;;;;5083567;28;20131;-31
2023/06/17 06:24:53;;;;;;;10.40;7.57;;;20.70;77.00;;;;;;5083807;28;20129;-30
2023/06/17 06:27:20;;;;;;;10.35;7.95;;;21.20;77.70;;;;;;5082489;28;20494;-30
2023/06/17 06:29:47;;;;;;;12.40;7.95;;;;;;;;;;5082990;28;20505;-31
2023/06/17 06:32:14;;;;;;;11.13;7.40;;;20.80;77.10;;;;;;5084918;28;20480;-30
2023/06/17 06:34:45;;;;;;;11.85;8.70;;;20.40;74.90;;;;;;5073985;28;20054;-32
2023/06/17 06:37:12;;;;;;;11.02;8.18;;;20.60;77.60;;;;;;5085274;28;20412;-31
2023/06/17 06:39:38;;;;;;;13.32;8.25;;;20.70;77.60;;;;;;5093626;28;20125;-31
2023/06/17 06:42:06;;;;;;;15.20;9.07;;;20.40;60.00;;;;;;5093894;28;20054;-32
2023/06/17 06:44:33;;;;;;;11.38;8.70;;;;;;;;;;5093675;28;20615;-34
2023/06/17 06:47:00;;;;;;;13.23;8.77;;;20.80;77.00;;;;;;5093247;28;20048;-31
2023/06/17 06:49:27;;;;;;;11.57;8.98;;;20.20;77.70;;;;;;5085992;28;20072;-30
2023/06/17 06:51:55;;;;;;;13.25;9.02;;;19.90;61.00;;;;;;5073954;28;20083;-32
2023/06/17 06:54:22;;;;;;;11.65;8.50;;;;;;;;;;5073769;28;20116;-33
2023/06/17 06:56:49;;;;;;;13.55;9.05;;;21.00;73.50;;;;;;5087650;28;20386;-31
2023/06/17 06:59:16;;;;;;;11.90;8.98;;;19.70;71.00;;;;;;5094069;28;20135;-31
2023/06/17 07:01:42;;;;;;;13.05;8.75;;;21.00;78.20;;;;;;5093785;28;20490;-31
2023/06/17 07:04:10;;;;;;;12.48;9.40;;;;;;;;;;5093373;28;20155;-31
2023/06/17 07:06:36;;;;;;;10.35;8.45;;;20.50;75.10;;;;;;5093926;28;20044;-31
2023/06/17 07:09:05;;;;;;;12.88;9.07;;;20.60;77.70;;;;;;5086864;28;20419;-30
2023/06/17 07:11:31;;;;;;;12.52;8.95;;;20.50;77.20;;;;;;5093033;28;20043;-32
2023/06/17 07:13:58;;;;;;;11.65;8.60;;;19.30;67.30;;;;;;5091478;28;20134;-31
2023/06/17 07:16:25;;;;;;;11.73;8.50;;;20.90;77.30;;;;;;5093668;28;20051;-30
2023/06/17 07:18:52;;;;;;;12.32;8.40;;;20.10;77.40;;;;;;5093094;28;20056;-31
2023/06/17 07:21:18;;;;;;;11.25;8.57;;;19.20;63.20;;;;;;5093677;28;20046;-32
2023/06/17 07:23:45;;;;;;;11.35;8.57;;;20.10;76.80;;;;;;5082852;28;20047;-33
2023/06/17 07:26:13;;;;;;;15.52;9.88;;;20.40;60.40;;;;;;5073130;28;20136;-31
2023/06/17 07:28:40;;;;;;;14.80;8.93;;;20.00;76.90;;;;;;5090238;28;20135;-30
2023/06/17 07:31:08;;;;;;;14.35;9.60;;;;;;;;;;5093067;28;20040;-34
2023/06/17 07:33:35;;;;;;;13.98;9.13;;;;;;;;;;5093007;28;20540;-35
2023/06/17 07:36:01;;;;;;;12.70;9.57;;;20.30;77.30;;;;;;5092087;28;20494;-31
2023/06/17 07:38:28;;;;;;;10.38;8.90;;;20.80;77.30;;;;;;5082514;28;20123;-30
2023/06/17 07:40:55;;;;;;;13.63;9.98;;;20.10;76.60;;;;;;5088827;28;20556;-30
2023/06/17 07:43:23;;;;;;;13.20;9.32;;;20.70;60.60;;;;;;5092214;28;20131;-30
2023/06/17 07:45:50;;;;;;;13.00;9.60;;;;;;;;;;5091774;28;20778;-32
2023/06/17 07:48:17;;;;;;;13.23;8.65;;;;;;;;;;5092675;28;20052;-33
2023/06/17 07:50:44;;;;;;;13.90;9.32;;;20.70;77.30;;;;;;5093004;28;20105;-29
2023/06/17 07:53:11;;;;;;;12.32;9.20;;;;;;;;;;5091375;28;20424;-32
2023/06/17 07:55:39;;;;;;;13.25;9.75;;;20.30;77.10;;;;;;5093148;28;20068;-30
2023/06/17 07:58:05;;;;;;;12.13;8.93;;;20.50;67.50;;;;;;5092878;28;20048;-31
2023/06/17 08:00:34;;;;;;;11.30;9.07;;;20.30;76.90;;;;;;5092089;28;20477;-31
2023/06/17 08:03:00;;;;;;;13.75;9.40;;;21.40;77.70;;;;;;5080640;28;20550;-30
2023/06/17 08:05:28;;;;;;;14.70;9.50;;;;;;;;;;5072184;28;20056;-35
2023/06/17 08:07:54;;;;;;;13.02;9.10;;;20.80;77.60;;;;;;5072469;28;20052;-30
2023/06/17 08:10:21;;;;;;;13.15;9.77;;;20.80;77.20;;;;;;5072139;28;20055;-31
2023/06/17 08:12:48;;;;;;;12.38;9.20;;;19.90;62.20;;;;;;5072146;28;20135;-32
2023/06/17 08:15:15;;;;;;;13.38;9.07;;;20.10;77.60;;;;;;5072297;28;20053;-31
2023/06/17 08:17:43;;;;;;;12.00;9.55;;;21.70;77.80;;;;;;5084579;28;20131;-29
2023/06/17 08:20:11;;;;;;;11.85;9.15;;;20.70;65.60;;;;;;5092313;28;20126;-31
2023/06/17 08:22:37;;;;;;;13.15;9.40;;;20.20;76.80;;;;;;5092292;28;20074;-30
2023/06/17 08:25:05;;;;;;;11.02;8.65;;;20.20;65.70;;;;;;5092407;28;20130;-31
2023/06/17 08:27:32;;;;;;;12.07;9.15;;;20.30;77.80;;;;;;5092203;28;20087;-30
2023/06/17 08:29:59;;;;;;;15.57;9.40;;;19.80;76.70;;;;;;5092424;28;20059;-30
2023/06/17 08:32:26;;;;;;;13.73;9.10;;;21.30;77.40;;;;;;5091630;28;20055;-29
2023/06/17 08:34:54;;;;;;;13.30;9.10;;;20.40;68.30;;;;;;5092163;28;20051;-30
2023/06/17 08:37:21;;;;;;;12.63;9.48;;;;;;;;;;5091659;28;20056;-34
2023/06/17 08:39:48;;;;;;;11.73;8.80;;;21.60;77.40;;;;;;5087318;28;20382;-30
2023/06/17 08:42:15;;;;;;;12.30;8.20;;;20.60;60.80;;;;;;5077744;28;20449;-32
2023/06/17 08:44:43;;;;;;;12.43;8.75;;;20.00;76.30;;;;;;5070794;28;20138;-30
2023/06/17 08:47:10;;;;;;;13.95;8.75;;;21.30;77.00;;;;;;5071407;28;20466;-30
2023/06/17 08:49:37;;;;;;;11.15;8.70;;;21.20;66.60;;;;;;5076738;28;20127;-32
2023/06/17 08:52:06;;;;;;;13.82;8.70;;;21.00;60.30;;;;;;5077732;28;20523;-35
2023/06/17 08:54:33;;;;;;;13.30;9.10;;;21.10;61.90;;;;;;5070135;28;20041;-34
2023/06/17 08:57:00;;;;;;;11.90;9.30;;;20.50;77.20;;;;;;5087649;28;20070;-30
2023/06/17 08:59:26;;;;;;;13.48;9.50;;;20.30;76.60;;;;;;5085261;28;20117;-30
2023/06/17 09:01:53;;;;;;;12.63;9.00;;;;;;;;;;5081829;28;20393;-35
2023/06/17 09:04:21;;;;;;;11.60;8.50;;;21.60;62.20;;;;;;5079559;28;20135;-28
2023/06/17 09:06:48;;;;;;;11.77;8.65;;;20.90;65.50;;;;;;5082112;28;20072;-31
2023/06/17 09:09:16;;;;;;;13.20;8.95;;;21.40;76.50;;;;;;5076048;28;20105;-31
2023/06/17 09:11:49;;;;;;;13.73;9.70;;;21.30;59.90;;;;;;5079166;28;20036;-34
2023/06/17 09:14:17;;;;;;;13.48;9.23;;;21.30;59.80;;;;;;5079539;28;20051;-34
2023/06/17 09:16:44;;;;;;;12.02;8.23;;;;;;;;;;5079379;28;20046;-33
2023/06/17 09:19:13;;;;;;;11.10;8.65;;;21.20;75.80;;;;;;5079776;28;20463;-32
2023/06/17 09:21:40;;;;;;;12.68;8.90;;;;;;;;;;5078798;28;20123;-36
2023/06/17 09:24:08;;;;;;;12.18;9.05;;;21.50;63.90;;;;;;5079722;28;20412;-32
2023/06/17 09:26:39;;;;;;;13.40;8.90;;;21.80;71.00;;;;;;5083392;28;20067;-35
2023/06/17 09:29:07;;;;;;;14.60;8.77;;;21.50;63.40;;;;;;5077716;28;20477;-36
2023/06/17 09:31:34;;;;;;;13.85;9.32;;;21.60;76.20;;;;;;5091162;28;20119;-32
2023/06/17 09:34:03;;;;;;;11.10;8.93;;;21.70;59.00;;;;;;5090177;28;20704;-33
2023/06/17 09:36:30;;;;;;;12.20;8.68;;;21.60;58.90;;;;;;5087730;28;20052;-34
2023/06/17 09:38:57;;;;;;;11.32;8.40;;;22.60;75.90;;;;;;5078235;28;20478;-32
2023/06/17 09:41:24;;;;;;;12.43;8.45;;;22.00;75.20;;;;;;5078657;28;20044;-32
2023/06/17 09:43:52;;;;;;;10.60;8.40;;;21.30;64.90;;;;;;5079191;28;20055;-34
2023/06/17 09:46:24;;;;;;;11.18;8.05;;;21.10;63.20;;;;;;5077901;28;20063;-33
2023/06/17 09:48:51;;;;;;;9.77;7.88;;;21.80;74.30;;;;;;5073933;28;20080;-32
2023/06/17 09:51:21;;;;;;;12.20;8.50;;;22.00;75.30;;;;;;5071200;28;20045;-31
2023/06/17 09:53:49;;;;;;;11.23;7.90;;;23.20;75.40;;;;;;5070985;28;20067;-32
2023/06/17 09:56:18;;;;;;;12.43;8.32;;;;;;;;;;5080461;28;20050;-32
2023/06/17 09:58:44;;;;;;;13.63;9.02;;;22.20;74.80;;;;;;5094575;28;20123;-32
2023/06/17 10:01:13;;;;;;;14.43;9.23;;;21.70;58.70;;;;;;5095043;28;20587;-34
2023/06/17 10:03:40;;;;;;;13.52;8.60;;;;;;;;;;5094684;28;20051;-32
2023/06/17 10:06:08;;;;;;;10.75;8.38;;;21.80;74.60;;;;;;5095087;28;20051;-33
2023/06/17 10:08:36;;;;;;;10.98;8.45;;;22.20;58.70;;;;;;5082025;28;20071;-37
2023/06/17 10:11:03;;;;;;;13.50;8.60;;;;;;;;;;5074377;28;20080;-32
2023/06/17 10:13:32;;;;;;;12.20;8.45;;;22.10;68.70;;;;;;5073910;28;20131;-32
2023/06/17 10:15:58;;;;;;;12.88;8.40;;;22.10;70.00;;;;;;5079537;28;20125;-32
2023/06/17 10:18:27;;;;;;;16.05;8.43;;;22.80;74.90;;;;;;5094811;28;20124;-32
2023/06/17 10:20:53;;;;;;;14.35;8.52;;;21.40;73.90;;;;;;5094759;28;20126;-32
2023/06/17 10:23:21;;;;;;;11.75;8.57;;;23.30;68.00;;;;;;5094602;28;20131;-32
2023/06/17 10:25:47;;;;;;;13.07;9.20;;;22.70;75.50;;;;;;5082467;28;20048;-31
2023/06/17 10:28:15;;;;;;;11.70;8.45;;;22.30;61.50;;;;;;5074319;28;20048;-34
2023/06/17 10:30:44;;;;;;;14.27;8.52;;;22.80;74.70;;;;;;5074176;28;20049;-31
2023/06/17 10:33:10;;;;;;;14.02;9.02;;;22.30;68.60;;;;;;5074030;28;20093;-32
2023/06/17 10:35:39;;;;;;;11.90;8.05;;;22.00;74.70;;;;;;5073934;28;20052;-33
2023/06/17 10:38:06;;;;;;;11.88;7.78;;;22.80;75.10;;;;;;5092960;28;20048;-31
2023/06/17 10:40:36;;;;;;;9.95;7.38;;;;;;;;;;5094207;28;20052;-33
2023/06/17 10:43:24;;;;;;;11.52;8.00;;;23.50;59.20;;;;;;5080864;28;20056;-33
2023/06/17 10:45:54;;;;;;;12.82;7.50;;;22.60;58.50;;;;;;5070268;28;20058;-37
2023/06/17 10:48:23;;;;;;;11.82;7.50;;;23.30;65.00;;;;;;5090617;28;20044;-36
2023/06/17 10:50:57;;;;;;;9.77;7.32;;;22.60;74.20;;;;;;5093882;28;20048;-41
2023/06/17 10:53:29;;;;;;;9.43;7.30;;;22.80;74.20;;;;;;5093547;28;20059;-40
2023/06/17 10:55:57;;;;;;;11.05;7.32;;;22.90;74.60;;;;;;5080150;28;20492;-41
2023/06/17 10:58:24;;;;;;;9.38;7.20;;;22.50;74.70;;;;;;5090414;28;20044;-41
2023/06/17 11:01:07;;;;;;;11.57;7.72;;;22.80;58.10;;;;;;5078637;28;20447;-39
2023/06/17 11:03:34;;;;;;;11.48;7.85;;;23.10;68.50;;;;;;5079407;28;20135;-41
2023/06/17 11:06:03;;;;;;;12.82;7.45;;;22.90;74.60;;;;;;5084631;28;20082;-41
2023/06/17 11:08:30;;;;;;;10.65;7.13;;;22.90;70.50;;;;;;5090930;28;20147;-40
2023/06/17 11:11:08;;;;;;;10.90;7.25;;;22.90;58.00;;;;;;5083362;28;20044;-39
2023/06/17 11:13:35;;;;;;;12.80;7.30;;;;;;;;;;5092273;28;20056;-40
2023/06/17 11:16:02;;;;;;;9.68;7.03;;;23.10;71.30;;;;;;5093349;28;20058;-40
2023/06/17 11:18:28;;;;;;;10.73;8.23;;;22.80;74.00;;;;;;5093785;28;20142;-41
2023/06/17 11:20:56;;;;;;;10.60;7.07;;;;;;;;;;5092846;28;20044;-37
2023/06/17 11:23:24;;;;;;;8.90;7.50;;;23.30;74.10;;;;;;5093406;28;20048;-41
2023/06/17 11:25:51;;;;;;;10.93;7.53;;;22.80;73.50;;;;;;5090026;28;20603;-41
2023/06/17 11:28:18;;;;;;;9.60;7.65;;;23.50;74.80;;;;;;5083570;28;20047;-40
2023/06/17 11:30:45;;;;;;;10.90;7.82;;;24.20;74.50;;;;;;5087188;28;20044;-40
2023/06/17 11:33:12;;;;;;;9.82;7.28;;;;;;;;;;5092835;28;20527;-35
2023/06/17 11:35:39;;;;;;;13.15;7.82;;;23.50;74.10;;;;;;5093152;28;20485;-40
2023/06/17 11:38:06;;;;;;;9.10;7.00;;;23.20;73.90;;;;;;5092805;28;20075;-41
2023/06/17 11:40:34;;;;;;;11.25;7.32;;;23.10;65.40;;;;;;5092327;28;20139;-39
2023/06/17 11:43:01;;;;;;;8.90;6.85;;;;;;;;;;5071728;28;20103;-37
2023/06/17 11:45:30;;;;;;;10.10;7.07;;;23.80;74.80;;;;;;5072224;28;20132;-41
2023/06/17 11:47:56;;;;;;;9.68;7.13;;;23.00;61.80;;;;;;5072928;28;20048;-40
2023/06/17 11:50:29;;;;;;;8.80;7.10;;;23.60;73.80;;;;;;5072678;28;20128;-40
2023/06/17 11:52:56;;;;;;;10.13;7.07;;;23.20;73.70;;;;;;5085604;28;20048;-40
2023/06/17 11:55:30;;;;;;;9.35;6.88;;;23.40;66.70;;;;;;5081415;28;20475;-40
2023/06/17 11:57:58;;;;;;;15.30;6.97;;;24.10;68.30;;;;;;5072686;28;20056;-40
2023/06/17 12:00:25;;;;;;;9.65;7.20;;;23.70;68.10;;;;;;5072311;28;20127;-39
2023/06/17 12:02:52;;;;;;;10.18;7.38;;;24.30;74.60;;;;;;5087937;28;20121;-40
2023/06/17 12:05:19;;;;;;;8.90;6.82;;;23.20;73.10;;;;;;5092869;28;20048;-41
2023/06/17 12:07:46;;;;;;;8.20;6.47;;;23.50;73.40;;;;;;5092301;28;20054;-41
2023/06/17 12:10:13;;;;;;;10.05;6.60;;;;;;;;;;5092174;28;20131;-31
2023/06/17 12:12:40;;;;;;;9.55;6.50;;;23.80;72.50;;;;;;5092034;28;20146;-32
2023/06/17 12:15:09;;;;;;;10.60;6.28;;;24.50;58.90;;;;;;5092795;28;20043;-35
2023/06/17 12:17:40;;;;;;;9.50;6.22;;;23.40;57.50;;;;;;5091322;28;20054;-33
2023/06/17 12:20:12;;;;;;;7.63;5.65;;;23.40;57.50;;;;;;5090973;28;20048;-31
2023/06/17 12:22:39;;;;;;;7.07;5.78;;;23.40;73.60;;;;;;5091966;28;20172;-31
2023/06/17 12:25:07;;;;;;;8.15;6.20;;;23.30;67.70;;;;;;5092572;28;20052;-31
2023/06/17 12:27:34;;;;;;;8.27;6.15;;;;;;;;;;5092459;28;20131;-35
2023/06/17 12:30:02;;;;;;;8.65;5.97;;;23.50;73.50;;;;;;5092338;28;20135;-31
2023/06/17 12:32:30;;;;;;;9.05;5.65;;;24.00;73.30;;;;;;5092080;28;20538;-31
2023/06/17 12:34:58;;;;;;;8.80;5.45;;;23.40;72.60;;;;;;5086545;28;20056;-31
2023/06/17 12:37:26;;;;;;;6.78;5.43;;;23.50;72.70;;;;;;5084641;28;20135;-31
2023/06/17 12:39:54;;;;;;;7.40;5.60;;;23.80;73.40;;;;;;5092291;28;20054;-33
2023/06/17 12:42:21;;;;;;;8.02;5.38;;;23.50;65.60;;;;;;5091902;28;20082;-31
2023/06/17 12:44:48;;;;;;;7.05;5.45;;;;;;;;;;5092012;28;20067;-35
2023/06/17 12:47:15;;;;;;;6.93;5.00;;;24.00;73.20;;;;;;5092086;28;20051;-32
2023/06/17 12:49:43;;;;;;;7.60;5.50;;;23.70;56.70;;;;;;5092197;28;20123;-35
2023/06/17 12:52:10;;;;;;;8.32;5.57;;;;;;;;;;5080973;28;20062;-42
2023/06/17 12:54:38;;;;;;;10.75;5.40;;;;;;;;;;5071687;28;20083;-33
2023/06/17 12:57:05;;;;;;;7.05;4.97;;;24.20;58.50;;;;;;5087709;28;20044;-33
2023/06/17 12:59:33;;;;;;;7.68;4.90;;;;;;;;;;5091887;28;20132;-32
2023/06/17 13:02:00;;;;;;;6.65;4.90;;;24.00;72.60;;;;;;5091481;28;20127;-31
2023/06/17 13:04:27;;;;;;;6.72;4.65;;;;;;;;;;5090003;28;20056;-35